createdAt,value
2022-12-08T00:01:40.422Z,4.10
2022-12-08T00:04:10.083Z,4.20
2022-12-08T00:06:58.075Z,4.60
2022-12-08T00:09:37.912Z,5.10
2022-12-08T00:12:09.793Z,4.10
2022-12-08T00:14:41.091Z,4.40
2022-12-08T00:17:12.390Z,4.20
2022-12-08T00:19:41.701Z,4.40
2022-12-08T00:22:15.322Z,4.70
2022-12-08T00:24:44.996Z,4.60
2022-12-08T00:27:17.680Z,5.30
2022-12-08T00:29:48.197Z,5.50
2022-12-08T00:32:16.094Z,5.20
2022-12-08T00:34:44.262Z,5.30
2022-12-08T00:37:12.046Z,4.40
2022-12-08T00:39:39.759Z,4.40
2022-12-08T00:42:13.857Z,4.90
2022-12-08T00:44:45.079Z,4.70
2022-12-08T00:47:17.764Z,4.80
2022-12-08T00:49:51.445Z,4.90
2022-12-08T00:52:20.280Z,4.80
2022-12-08T00:54:49.478Z,4.40
2022-12-08T00:57:19.406Z,4.30
2022-12-08T00:59:47.243Z,5.00
2022-12-08T01:02:15.474Z,4.80
2022-12-08T01:04:45.217Z,5.10
2022-12-08T01:07:13.226Z,4.40
2022-12-08T01:09:43.933Z,4.20
2022-12-08T01:12:11.980Z,3.70
2022-12-08T01:14:41.890Z,4.70
2022-12-08T01:17:10.423Z,4.10
2022-12-08T01:19:39.731Z,4.00
2022-12-08T01:22:08.423Z,3.80
2022-12-08T01:24:36.622Z,4.00
2022-12-08T01:27:05.789Z,3.50
2022-12-08T01:29:33.833Z,4.50
2022-12-08T01:32:02.340Z,4.60
2022-12-08T01:34:30.796Z,4.40
2022-12-08T01:37:02.381Z,4.40
2022-12-08T01:39:34.091Z,4.60
2022-12-08T01:42:03.095Z,4.20
2022-12-08T01:44:55.536Z,4.50
2022-12-08T01:47:28.763Z,4.60
2022-12-08T01:49:56.866Z,4.50
2022-12-08T01:52:31.993Z,4.40
2022-12-08T01:55:10.519Z,6.30
2022-12-08T01:57:44.018Z,5.40
2022-12-08T02:00:17.973Z,5.70
2022-12-08T02:02:58.483Z,5.60
2022-12-08T02:05:28.904Z,6.20
2022-12-08T02:08:00.403Z,5.80
2022-12-08T02:10:33.624Z,6.60
2022-12-08T02:13:03.460Z,6.30
2022-12-08T02:15:40.432Z,7.10
2022-12-08T02:18:23.001Z,6.30
2022-12-08T02:20:59.934Z,6.80
2022-12-08T02:23:37.501Z,6.50
2022-12-08T02:27:25.557Z,6.20
2022-12-08T02:30:17.257Z,5.30
2022-12-08T02:33:20.776Z,5.10
2022-12-08T02:36:02.572Z,4.70
2022-12-08T02:38:44.083Z,4.70
2022-12-08T02:41:24.976Z,5.10
2022-12-08T02:44:00.396Z,5.40
2022-12-08T02:46:33.871Z,4.90
2022-12-08T02:49:04.533Z,5.20
2022-12-08T02:51:32.960Z,5.60
2022-12-08T02:54:03.043Z,5.20
2022-12-08T02:56:53.330Z,6.00
2022-12-08T02:59:33.502Z,5.30
2022-12-08T03:02:22.727Z,5.20
2022-12-08T03:04:59.304Z,7.00
2022-12-08T03:07:35.493Z,6.20
2022-12-08T03:10:11.118Z,6.90
2022-12-08T03:12:48.823Z,6.20
2022-12-08T03:15:20.357Z,5.40
2022-12-08T03:17:53.758Z,5.20
2022-12-08T03:20:25.069Z,4.80
2022-12-08T03:22:56.226Z,4.90
2022-12-08T03:25:31.347Z,4.80
2022-12-08T03:28:00.376Z,5.60
2022-12-08T03:30:37.374Z,5.90
2022-12-08T03:35:39.856Z,5.30
2022-12-08T03:38:12.872Z,5.70
2022-12-08T03:40:41.810Z,5.60
2022-12-08T03:43:10.730Z,5.50
2022-12-08T03:45:38.483Z,5.10
2022-12-08T03:48:08.236Z,6.00
2022-12-08T03:50:35.980Z,5.60
2022-12-08T03:53:03.964Z,5.70
2022-12-08T03:55:31.768Z,5.90
2022-12-08T03:58:00.965Z,6.40
2022-12-08T04:00:28.762Z,6.20
2022-12-08T04:02:57.067Z,6.80
2022-12-08T04:05:25.508Z,6.70
2022-12-08T04:07:57.533Z,6.50
2022-12-08T04:10:25.793Z,6.30
2022-12-08T04:12:54.077Z,5.70
2022-12-08T04:15:23.735Z,6.00
2022-12-08T04:17:58.927Z,6.10
2022-12-08T04:20:27.533Z,5.80
2022-12-08T04:22:55.876Z,6.80
2022-12-08T04:25:26.603Z,6.20
2022-12-08T04:27:55.715Z,6.00
2022-12-08T04:30:24.849Z,6.40
2022-12-08T04:32:52.826Z,5.80
2022-12-08T04:35:21.248Z,6.50
2022-12-08T04:37:52.142Z,6.30
2022-12-08T04:58:03.309Z,5.60
2022-12-08T05:00:33.818Z,6.10
2022-12-08T05:03:06.798Z,6.30
2022-12-08T05:05:37.268Z,6.40
2022-12-08T05:08:08.903Z,7.10
2022-12-08T05:10:39.631Z,7.00
2022-12-08T05:13:10.388Z,8.70
2022-12-08T05:15:41.351Z,7.20
2022-12-08T05:18:11.913Z,6.80
2022-12-08T05:20:42.951Z,7.00
2022-12-08T05:23:16.419Z,8.10
2022-12-08T05:25:50.950Z,7.90
2022-12-08T05:28:40.933Z,8.10
2022-12-08T05:31:12.449Z,8.60
2022-12-08T05:33:44.969Z,7.40
2022-12-08T05:36:17.831Z,7.40
2022-12-08T05:38:49.585Z,7.20
2022-12-08T05:41:22.292Z,6.70
2022-12-08T05:43:53.174Z,7.00
2022-12-08T05:46:27.600Z,7.50
2022-12-08T05:49:02.321Z,7.30
2022-12-08T05:51:32.923Z,7.40
2022-12-08T05:54:04.880Z,8.20
2022-12-08T05:56:35.776Z,7.50
2022-12-08T05:59:08.301Z,7.90
2022-12-08T06:01:42.571Z,8.80
2022-12-08T06:04:20.019Z,7.70
2022-12-08T06:06:51.619Z,9.30
2022-12-08T06:09:22.769Z,9.30
2022-12-08T06:11:55.614Z,9.30
2022-12-08T06:14:26.659Z,8.30
2022-12-08T06:16:59.392Z,7.80
2022-12-08T06:19:30.712Z,8.60
2022-12-08T06:22:02.411Z,8.10
2022-12-08T06:24:33.042Z,8.40
2022-12-08T06:27:03.542Z,8.10
2022-12-08T06:29:34.043Z,8.70
2022-12-08T06:32:04.480Z,9.10
2022-12-08T06:34:35.492Z,8.50
2022-12-08T06:37:05.854Z,8.60
2022-12-08T06:39:36.293Z,7.90
2022-12-08T06:42:23.587Z,8.20
2022-12-08T06:44:54.397Z,7.90
2022-12-08T06:47:26.349Z,7.80
2022-12-08T06:49:56.935Z,7.40
2022-12-08T06:52:27.379Z,8.20
2022-12-08T06:55:00.199Z,7.70
2022-12-08T06:57:30.612Z,8.70
2022-12-08T07:00:01.103Z,8.40
2022-12-08T07:02:31.991Z,8.70
2022-12-08T07:05:02.404Z,7.70
2022-12-08T07:07:38.721Z,10.00
2022-12-08T07:10:13.331Z,7.80
2022-12-08T07:12:43.674Z,7.10
2022-12-08T07:15:14.491Z,7.00
2022-12-08T07:17:44.916Z,7.90
2022-12-08T07:20:15.755Z,7.40
2022-12-08T07:22:51.273Z,7.20
2022-12-08T07:25:22.401Z,7.90
2022-12-08T07:27:55.922Z,7.60
2022-12-08T07:30:26.492Z,8.00
2022-12-08T07:32:57.967Z,7.30
2022-12-08T07:35:28.364Z,7.40
2022-12-08T07:37:58.893Z,6.10
2022-12-08T07:40:29.798Z,7.60
2022-12-08T07:43:00.270Z,7.50
2022-12-08T07:45:31.870Z,8.40
2022-12-08T07:48:02.558Z,7.30
2022-12-08T07:50:33.485Z,7.30
2022-12-08T07:53:03.903Z,7.40
2022-12-08T07:55:34.658Z,8.70
2022-12-08T07:58:05.103Z,7.20
2022-12-08T08:00:35.627Z,7.70
2022-12-08T08:03:08.923Z,8.70
2022-12-08T08:05:39.904Z,7.90
2022-12-08T08:08:10.367Z,8.70
2022-12-08T08:10:40.788Z,8.90
2022-12-08T08:13:11.187Z,8.40
2022-12-08T08:15:41.726Z,8.00
2022-12-08T08:18:12.369Z,6.10
2022-12-08T08:20:42.798Z,7.50
2022-12-08T08:23:13.222Z,7.40
2022-12-08T08:25:43.599Z,7.60
2022-12-08T08:28:13.924Z,7.00
2022-12-08T08:30:44.355Z,6.80
2022-12-08T08:33:15.026Z,7.60
2022-12-08T08:35:45.409Z,7.30
2022-12-08T08:38:15.957Z,6.60
2022-12-08T08:40:46.700Z,6.90
2022-12-08T08:43:35.980Z,6.50
2022-12-08T08:46:11.056Z,6.80
2022-12-08T08:48:42.844Z,6.20
2022-12-08T08:51:16.140Z,6.90
2022-12-08T08:53:46.514Z,5.20
2022-12-08T08:56:19.975Z,6.30
2022-12-08T08:58:51.881Z,6.80
2022-12-08T09:01:25.313Z,6.20
2022-12-08T09:03:59.192Z,5.60
2022-12-08T09:06:32.042Z,6.20
2022-12-08T09:09:06.843Z,5.90
2022-12-08T09:11:39.095Z,5.80
2022-12-08T09:14:11.845Z,5.80
2022-12-08T09:16:42.744Z,5.50
2022-12-08T09:19:14.717Z,5.80
2022-12-08T09:21:47.340Z,5.20
2022-12-08T09:24:17.721Z,5.50
2022-12-08T09:26:48.361Z,6.10
2022-12-08T09:29:21.354Z,5.50
2022-12-08T09:31:51.774Z,4.70
2022-12-08T09:34:22.202Z,5.90
2022-12-08T09:36:52.541Z,5.00
2022-12-08T09:39:23.135Z,4.70
2022-12-08T09:41:59.468Z,5.40
2022-12-08T09:44:51.674Z,5.50
2022-12-08T09:47:35.247Z,5.70
2022-12-08T09:50:13.924Z,3.90
2022-12-08T09:52:49.401Z,4.90
2022-12-08T09:55:26.143Z,4.80
2022-12-08T09:58:04.400Z,6.00
2022-12-08T10:00:35.311Z,5.50
2022-12-08T10:03:05.764Z,4.50
2022-12-08T10:05:43.812Z,5.50
2022-12-08T10:08:21.516Z,5.50
2022-12-08T10:10:58.769Z,5.90
2022-12-08T10:16:23.132Z,5.80
2022-12-08T10:19:02.556Z,5.60
2022-12-08T10:21:34.192Z,5.70
2022-12-08T10:24:12.847Z,4.60
2022-12-08T10:26:44.200Z,5.00
2022-12-08T10:29:16.095Z,5.80
2022-12-08T10:31:48.492Z,5.20
2022-12-08T10:34:23.281Z,6.20
2022-12-08T10:36:57.984Z,6.10
2022-12-08T10:39:37.233Z,5.00
2022-12-08T10:42:24.068Z,5.70
2022-12-08T10:45:11.347Z,4.90
2022-12-08T10:47:45.677Z,5.90
2022-12-08T10:50:22.651Z,6.20
2022-12-08T10:52:59.864Z,5.60
2022-12-08T10:55:40.876Z,5.10
2022-12-08T10:58:26.904Z,5.50
2022-12-08T11:01:02.662Z,5.40
2022-12-08T11:03:38.800Z,5.20
2022-12-08T11:06:18.747Z,5.40
2022-12-08T11:08:54.033Z,6.00
2022-12-08T11:11:39.735Z,5.40
2022-12-08T11:14:16.902Z,6.30
2022-12-08T11:16:47.680Z,6.80
2022-12-08T11:19:19.847Z,6.30
2022-12-08T11:21:50.556Z,6.40
2022-12-08T11:24:32.290Z,6.20
2022-12-08T11:27:07.494Z,5.50
2022-12-08T11:29:38.251Z,6.30
2022-12-08T11:32:13.100Z,6.10
2022-12-08T11:34:47.404Z,6.50
2022-12-08T11:37:22.427Z,5.50
2022-12-08T11:39:56.341Z,5.60
2022-12-08T11:42:32.915Z,5.70
2022-12-08T11:45:08.473Z,6.00
2022-12-08T11:47:44.654Z,5.30
2022-12-08T11:50:22.416Z,5.40
2022-12-08T11:52:54.075Z,4.50
2022-12-08T11:55:39.414Z,6.40
2022-12-08T11:58:19.670Z,6.00
2022-12-08T12:00:50.396Z,5.50
2022-12-08T12:03:29.908Z,5.60
2022-12-08T12:06:38.187Z,5.40
2022-12-08T12:09:14.770Z,5.70
2022-12-08T12:15:12.533Z,5.80
2022-12-08T12:17:48.067Z,5.50
2022-12-08T12:20:27.096Z,4.90
2022-12-08T12:23:04.382Z,5.90
2022-12-08T12:25:36.555Z,5.50
2022-12-08T12:28:09.779Z,5.50
2022-12-08T12:30:59.977Z,5.20
2022-12-08T12:33:32.872Z,5.70
2022-12-08T12:36:07.739Z,6.20
2022-12-08T12:38:58.892Z,6.30
2022-12-08T12:41:33.986Z,5.70
2022-12-08T12:44:26.506Z,5.80
2022-12-08T12:47:02.716Z,5.60
2022-12-08T12:50:05.744Z,5.70
2022-12-08T12:52:53.199Z,5.50
2022-12-08T12:55:51.087Z,4.90
2022-12-08T12:58:43.503Z,5.30
2022-12-08T13:01:55.310Z,5.40
2022-12-08T13:04:35.180Z,5.80
2022-12-08T13:07:06.202Z,5.70
2022-12-08T13:09:41.533Z,5.00
2022-12-08T13:12:23.763Z,5.30
2022-12-08T13:14:59.056Z,5.50
2022-12-08T13:17:32.306Z,5.30
2022-12-08T13:20:06.508Z,5.50
2022-12-08T13:23:10.161Z,5.70
2022-12-08T13:25:52.889Z,5.00
2022-12-08T13:28:33.054Z,5.00
2022-12-08T13:31:04.100Z,4.60
2022-12-08T13:33:42.039Z,5.20
2022-12-08T13:36:23.543Z,6.30
2022-12-08T13:38:57.865Z,5.20
2022-12-08T13:41:34.210Z,5.90
2022-12-08T13:44:57.188Z,5.00
2022-12-08T13:58:41.666Z,5.60
2022-12-08T14:01:20.993Z,5.40
2022-12-08T14:04:30.891Z,6.00
2022-12-08T14:06:49.720Z,5.60
2022-12-08T14:09:23.447Z,6.50
2022-12-08T14:11:59.234Z,6.80
2022-12-08T14:15:01.197Z,6.10
2022-12-08T14:17:25.758Z,6.80
2022-12-08T14:19:58.946Z,7.90
2022-12-08T14:22:35.626Z,5.70
2022-12-08T14:25:09.007Z,7.90
2022-12-08T14:27:40.416Z,7.20
2022-12-08T14:30:21.896Z,6.70
2022-12-08T14:32:55.621Z,6.10
2022-12-08T14:35:29.575Z,6.00
2022-12-08T14:38:05.089Z,6.50
2022-12-08T14:40:37.583Z,5.90
2022-12-08T14:43:16.770Z,6.20
2022-12-08T14:45:53.425Z,6.80
2022-12-08T14:48:26.506Z,5.80
2022-12-08T14:51:07.994Z,6.40
2022-12-08T14:53:44.477Z,6.00
2022-12-08T14:56:22.396Z,6.70
2022-12-08T14:59:03.720Z,6.60
2022-12-08T15:01:35.261Z,6.80
2022-12-08T15:04:15.083Z,6.60
2022-12-08T15:06:53.671Z,6.40
2022-12-08T15:09:36.344Z,7.00
2022-12-08T15:12:26.109Z,6.80
2022-12-08T15:15:03.029Z,6.00
2022-12-08T15:17:36.964Z,7.10
2022-12-08T15:20:31.651Z,7.80
2022-12-08T15:23:06.972Z,7.10
2022-12-08T15:25:38.660Z,7.40
2022-12-08T15:28:10.233Z,7.40
2022-12-08T15:30:40.707Z,8.40
2022-12-08T15:33:11.169Z,7.20
2022-12-08T15:35:41.980Z,7.40
2022-12-08T15:38:22.246Z,6.60
2022-12-08T15:40:52.986Z,6.80
2022-12-08T15:43:24.053Z,7.30
2022-12-08T15:45:59.651Z,6.90
2022-12-08T15:48:31.817Z,6.40
2022-12-08T15:51:02.248Z,5.80
2022-12-08T15:53:34.716Z,6.50
2022-12-08T15:56:29.157Z,7.00
2022-12-08T15:59:02.409Z,7.90
2022-12-08T16:01:56.825Z,7.90
2022-12-08T16:05:17.759Z,5.30
2022-12-08T16:07:28.622Z,6.90
2022-12-08T16:10:05.633Z,6.00
2022-12-08T16:13:54.678Z,7.10
2022-12-08T16:15:59.170Z,7.70
2022-12-08T16:18:36.763Z,7.40
2022-12-08T16:21:35.518Z,6.30
2022-12-08T16:24:09.045Z,7.10
2022-12-08T16:29:30.217Z,5.40
2022-12-08T16:32:05.870Z,5.90
2022-12-08T16:34:37.420Z,5.50
2022-12-08T16:37:15.716Z,6.40
2022-12-08T16:39:47.113Z,5.70
2022-12-08T16:42:37.800Z,6.00
2022-12-08T16:45:13.981Z,6.30
2022-12-08T16:47:47.968Z,6.80
2022-12-08T16:50:21.896Z,6.60
2022-12-08T16:52:57.058Z,7.00
2022-12-08T16:55:29.520Z,7.00
2022-12-08T16:58:01.253Z,6.70
2022-12-08T17:00:39.113Z,6.70
2022-12-08T17:03:17.087Z,6.30
2022-12-08T17:05:48.954Z,7.00
2022-12-08T17:08:23.111Z,8.90
2022-12-08T17:11:07.490Z,8.90
2022-12-08T17:13:39.581Z,8.90
2022-12-08T17:16:15.169Z,10.00
2022-12-08T17:18:48.423Z,9.00
2022-12-08T17:21:20.897Z,10.40
2022-12-08T17:23:52.827Z,8.90
2022-12-08T17:26:23.702Z,9.90
2022-12-08T17:29:01.916Z,11.90
2022-12-08T17:31:35.763Z,9.90
2022-12-08T17:34:10.417Z,10.60
2022-12-08T17:36:42.572Z,9.10
2022-12-08T17:39:18.486Z,10.80
2022-12-08T17:41:57.329Z,11.20
2022-12-08T17:44:28.847Z,12.10
2022-12-08T17:47:00.197Z,14.00
2022-12-08T17:49:32.962Z,12.70
2022-12-08T17:52:07.047Z,13.80
2022-12-08T17:54:39.520Z,13.50
2022-12-08T17:57:10.608Z,14.40
2022-12-08T17:59:42.684Z,13.70
2022-12-08T18:02:17.577Z,16.10
2022-12-08T18:04:49.249Z,12.90
2022-12-08T18:07:19.622Z,12.30
2022-12-08T18:09:51.493Z,13.70
2022-12-08T18:12:23.848Z,12.30
2022-12-08T18:14:56.133Z,13.20
2022-12-08T18:17:27.074Z,12.70
2022-12-08T18:20:01.786Z,15.20
2022-12-08T18:22:37.503Z,13.60
2022-12-08T18:25:11.155Z,13.90
2022-12-08T18:27:43.359Z,12.50
2022-12-08T18:30:18.130Z,11.90
2022-12-08T18:32:50.730Z,12.20
2022-12-08T18:35:24.569Z,12.60
2022-12-08T18:38:00.491Z,11.30
2022-12-08T18:40:31.758Z,13.30
2022-12-08T18:43:07.808Z,13.10
2022-12-08T18:45:42.084Z,11.60
2022-12-08T18:48:16.424Z,12.80
2022-12-08T18:50:48.869Z,11.50
2022-12-08T18:53:21.163Z,12.10
2022-12-08T18:55:53.050Z,12.60
2022-12-08T18:58:25.241Z,11.80
2022-12-08T19:00:57.785Z,13.10
2022-12-08T19:03:28.453Z,12.70
2022-12-08T19:06:08.624Z,13.80
2022-12-08T19:08:49.074Z,12.40
2022-12-08T19:11:25.204Z,14.70
2022-12-08T19:13:57.764Z,16.00
2022-12-08T19:16:28.585Z,12.40
2022-12-08T19:18:59.354Z,13.80
2022-12-08T19:21:30.615Z,11.60
2022-12-08T19:24:04.247Z,11.60
2022-12-08T19:26:40.370Z,12.50
2022-12-08T19:29:12.349Z,12.10
2022-12-08T19:31:45.353Z,14.60
2022-12-08T19:34:19.757Z,11.70
2022-12-08T19:36:54.175Z,12.20
2022-12-08T19:39:44.890Z,12.40
2022-12-08T19:42:38.322Z,11.20
2022-12-08T19:45:12.490Z,11.10
2022-12-08T19:47:44.220Z,11.40
2022-12-08T19:50:41.382Z,12.70
2022-12-08T19:53:14.866Z,10.80
2022-12-08T19:55:47.588Z,9.30
2022-12-08T19:58:20.046Z,11.70
2022-12-08T20:01:02.072Z,12.30
2022-12-08T20:03:32.993Z,12.40
2022-12-08T20:06:03.912Z,10.50
2022-12-08T20:08:36.806Z,10.40
2022-12-08T20:11:13.465Z,11.00
2022-12-08T20:13:50.163Z,12.00
2022-12-08T20:16:31.628Z,9.90
2022-12-08T20:19:04.740Z,11.80
2022-12-08T20:21:35.176Z,11.30
2022-12-08T20:24:11.597Z,11.70
2022-12-08T20:26:43.459Z,11.50
2022-12-08T20:29:22.561Z,11.80
2022-12-08T20:31:59.732Z,10.80
2022-12-08T20:34:56.018Z,10.80
2022-12-08T20:37:27.193Z,11.20
2022-12-08T20:40:05.573Z,11.20
2022-12-08T20:42:36.496Z,11.20
2022-12-08T20:45:11.652Z,10.10
2022-12-08T20:47:42.105Z,11.00
2022-12-08T20:50:37.302Z,11.60
2022-12-08T20:53:36.561Z,11.00
2022-12-08T20:56:10.281Z,10.40
2022-12-08T20:58:45.482Z,11.60
2022-12-08T21:01:18.040Z,12.20
2022-12-08T21:03:51.744Z,10.10
2022-12-08T21:06:27.015Z,12.20
2022-12-08T21:08:58.996Z,12.10
2022-12-08T21:11:31.738Z,12.70
2022-12-08T21:14:03.003Z,12.60
2022-12-08T21:16:35.879Z,9.70
2022-12-08T21:19:06.945Z,10.70
2022-12-08T21:21:38.008Z,11.30
2022-12-08T21:24:10.989Z,12.20
2022-12-08T21:26:45.933Z,12.90
2022-12-08T21:29:21.939Z,12.80
2022-12-08T21:31:57.267Z,11.50
2022-12-08T21:34:36.155Z,10.70
2022-12-08T21:37:10.330Z,9.50
2022-12-08T21:39:48.027Z,10.90
2022-12-08T21:42:39.755Z,13.20
2022-12-08T21:45:13.213Z,13.30
2022-12-08T21:47:46.450Z,12.60
2022-12-08T21:50:19.998Z,12.00
2022-12-08T21:52:55.342Z,10.50
2022-12-08T21:55:28.369Z,11.30
2022-12-08T21:58:10.965Z,11.10
2022-12-08T22:00:43.196Z,11.20
2022-12-08T22:03:17.274Z,11.20
2022-12-08T22:05:50.256Z,12.80
2022-12-08T22:08:21.548Z,11.90
2022-12-08T22:10:54.041Z,12.20
2022-12-08T22:13:26.185Z,12.40
2022-12-08T22:16:02.102Z,13.50
2022-12-08T22:18:40.134Z,12.30
2022-12-08T22:21:17.194Z,10.40
2022-12-08T22:23:50.902Z,11.30
2022-12-08T22:26:22.347Z,11.10
2022-12-08T22:28:58.419Z,12.50
2022-12-08T22:31:34.106Z,10.60
2022-12-08T22:34:05.350Z,10.50
2022-12-08T22:36:44.797Z,10.50
2022-12-08T22:39:37.843Z,11.00
2022-12-08T22:42:15.158Z,11.90
2022-12-08T22:45:11.783Z,10.40
2022-12-08T22:47:45.031Z,10.60
2022-12-08T22:50:21.275Z,12.20
2022-12-08T22:53:13.967Z,10.80
2022-12-08T22:56:15.677Z,10.10
2022-12-08T22:58:52.420Z,11.50
2022-12-08T23:01:49.531Z,11.20
2022-12-08T23:04:41.988Z,10.20
2022-12-08T23:07:25.726Z,10.30
2022-12-08T23:10:17.684Z,10.50
2022-12-08T23:13:11.175Z,10.80
2022-12-08T23:16:12.344Z,10.90
2022-12-08T23:18:48.309Z,10.70
2022-12-08T23:21:21.148Z,11.50
2022-12-08T23:23:53.541Z,9.80
2022-12-08T23:26:35.356Z,10.90
2022-12-08T23:29:06.883Z,10.80
2022-12-08T23:31:42.768Z,11.50
2022-12-08T23:34:36.370Z,11.40
2022-12-08T23:37:22.790Z,10.90
2022-12-08T23:39:54.170Z,10.20
2022-12-08T23:42:25.813Z,11.20
2022-12-08T23:44:59.862Z,11.20
2022-12-08T23:47:36.436Z,12.00
2022-12-08T23:50:33.440Z,12.10
2022-12-08T23:53:28.968Z,12.20
2022-12-08T23:56:03.021Z,12.10
2022-12-08T23:58:53.964Z,11.30
